Time;durP1;ratioP1;P1;durP2;ratioP2;P2;SDS_P1;SDS_P2;PMS_P1;PMS_P2;Temp;Humidity;BMP_temperature;BMP_pressure;BME280_temperature;BME280_humidity;BME280_pressure;Samples;Min_cycle;Max_cycle;Signal;HPM_P1;HPM_P2
2022/04/30 00:02:09;;;;;;;29.02;16.98;;;6.60;99.90;;;;;;5036429;28;20050;-73
2022/04/30 00:04:40;;;;;;;24.50;16.60;;;6.60;99.90;;;;;;5038311;28;20095;-73
2022/04/30 00:07:07;;;;;;;32.42;17.90;;;6.60;99.90;;;;;;5037691;28;20049;-73
2022/04/30 00:09:33;;;;;;;28.80;16.77;;;6.60;99.90;;;;;;5038056;28;20049;-72
2022/04/30 00:11:59;;;;;;;29.85;18.40;;;6.60;99.90;;;;;;5039968;28;20049;-73
2022/04/30 00:14:26;;;;;;;24.60;16.85;;;6.50;99.90;;;;;;5035687;28;20383;-73
2022/04/30 00:16:52;;;;;;;30.98;16.40;;;6.60;99.90;;;;;;5027270;28;20064;-73
2022/04/30 00:19:20;;;;;;;29.13;18.17;;;6.50;99.90;;;;;;5036837;28;20053;-73
2022/04/30 00:21:46;;;;;;;;;;;6.50;99.90;;;;;;5028611;28;20046;-73
2022/04/30 00:24:12;;;;;;;30.10;16.88;;;6.50;99.90;;;;;;5035701;28;19925;-73
2022/04/30 00:26:38;;;;;;;27.45;17.50;;;6.50;99.90;;;;;;5028413;28;20072;-72
2022/04/30 00:29:03;;;;;;;32.63;19.55;;;6.50;99.90;;;;;;5039495;28;20526;-73
2022/04/30 00:31:29;;;;;;;26.42;18.33;;;6.40;99.90;;;;;;5025969;28;20122;-73
2022/04/30 00:33:55;;;;;;;29.88;18.92;;;6.40;99.90;;;;;;5037922;28;20080;-73
2022/04/30 00:36:22;;;;;;;29.40;17.90;;;6.40;99.90;;;;;;5036267;28;20044;-73
2022/04/30 00:38:48;;;;;;;24.70;17.10;;;6.40;99.90;;;;;;5032120;28;20053;-73
2022/04/30 00:41:14;;;;;;;35.72;17.08;;;6.40;99.90;;;;;;5035124;28;20583;-73
2022/04/30 00:43:49;;;;;;;33.65;18.20;;;6.40;99.90;;;;;;5036632;28;20084;-73
2022/04/30 00:46:15;;;;;;;31.92;17.10;;;6.30;99.90;;;;;;5039090;28;20087;-73
2022/04/30 00:48:42;;;;;;;26.77;18.83;;;6.40;99.90;;;;;;5008244;28;20052;-73
2022/04/30 00:51:13;;;;;;;25.67;17.83;;;6.40;99.90;;;;;;5028008;28;20071;-73
2022/04/30 00:53:40;;;;;;;32.08;19.00;;;6.30;99.90;;;;;;5039227;28;20060;-73
2022/04/30 00:56:09;;;;;;;26.02;16.95;;;6.30;99.90;;;;;;5032574;28;20043;-73
2022/04/30 00:58:37;;;;;;;24.70;15.93;;;6.30;99.90;;;;;;5038245;28;20059;-72
2022/04/30 01:01:04;;;;;;;29.25;18.63;;;6.30;99.90;;;;;;5038760;28;20044;-73
2022/04/30 01:03:30;;;;;;;37.80;19.05;;;6.30;99.90;;;;;;5040544;28;20070;-73
2022/04/30 01:05:58;;;;;;;28.60;17.80;;;6.20;99.90;;;;;;5035035;28;20049;-73
2022/04/30 01:08:27;;;;;;;32.60;17.10;;;6.20;99.90;;;;;;5031030;28;20045;-73
2022/04/30 01:10:56;;;;;;;25.73;16.65;;;6.20;99.90;;;;;;5034676;28;20045;-73
2022/04/30 01:13:22;;;;;;;29.48;16.85;;;6.20;99.90;;;;;;5033877;28;20052;-73
2022/04/30 01:15:50;;;;;;;34.35;17.67;;;6.20;99.90;;;;;;5030834;28;20058;-73
2022/04/30 01:18:16;;;;;;;29.15;16.35;;;6.20;99.90;;;;;;5030458;28;20049;-73
2022/04/30 01:20:48;;;;;;;30.02;16.38;;;6.20;99.90;;;;;;5036789;28;20049;-73
2022/04/30 01:23:14;;;;;;;23.60;15.80;;;6.20;99.90;;;;;;5030084;28;20046;-73
2022/04/30 01:25:44;;;;;;;33.03;17.30;;;6.20;99.90;;;;;;5038614;28;20040;-73
2022/04/30 01:28:12;;;;;;;32.92;17.00;;;6.10;99.90;;;;;;5034969;28;20120;-72
2022/04/30 01:30:38;;;;;;;30.25;19.13;;;6.10;99.90;;;;;;5039219;28;20060;-73
2022/04/30 01:38:49;;;;;;;30.90;17.80;;;6.10;99.90;;;;;;4968300;28;20144;-72
2022/04/30 01:41:15;;;;;;;28.48;16.70;;;6.10;99.90;;;;;;5025089;28;20053;-73
2022/04/30 01:43:41;;;;;;;34.67;18.00;;;6.00;99.90;;;;;;5039301;28;20052;-73
2022/04/30 01:46:08;;;;;;;34.47;18.27;;;6.00;99.90;;;;;;5014620;28;20056;-72
2022/04/30 01:48:35;;;;;;;32.63;18.30;;;6.00;99.90;;;;;;5033125;28;20071;-73
2022/04/30 01:51:00;;;;;;;26.73;16.85;;;6.00;99.90;;;;;;5037935;28;20197;-72
2022/04/30 01:53:26;;;;;;;26.10;16.10;;;5.90;99.90;;;;;;5028919;28;20160;-73
2022/04/30 01:55:52;;;;;;;25.20;15.80;;;5.90;99.90;;;;;;5019284;28;20038;-73
2022/04/30 01:58:19;;;;;;;31.48;17.38;;;5.90;99.90;;;;;;5033580;28;20125;-73
2022/04/30 02:00:45;;;;;;;24.38;16.52;;;5.90;99.90;;;;;;5036469;28;20083;-73
2022/04/30 02:03:12;;;;;;;29.58;16.20;;;5.90;99.90;;;;;;5032913;28;20056;-73
2022/04/30 02:05:41;;;;;;;25.90;16.23;;;5.90;99.90;;;;;;5029842;28;20052;-73
2022/04/30 02:08:17;;;;;;;;;;;5.90;99.90;;;;;;5024407;28;20037;-73
2022/04/30 02:10:42;;;;;;;28.00;17.88;;;5.90;99.90;;;;;;5033717;28;19983;-73
2022/04/30 02:13:10;;;;;;;27.55;16.17;;;5.80;99.90;;;;;;5032055;28;20041;-73
2022/04/30 02:15:39;;;;;;;26.92;14.80;;;5.80;99.90;;;;;;5032690;28;20634;-73
2022/04/30 02:18:06;;;;;;;25.67;16.23;;;5.80;99.90;;;;;;5028197;28;20613;-72
2022/04/30 02:20:37;;;;;;;26.92;16.77;;;5.80;99.90;;;;;;5036929;28;20065;-73
2022/04/30 02:23:05;;;;;;;30.83;17.00;;;5.80;99.90;;;;;;5029438;28;20037;-72
2022/04/30 02:25:31;;;;;;;21.63;15.80;;;5.70;99.90;;;;;;5034116;28;20057;-73
2022/04/30 02:27:59;;;;;;;23.77;14.93;;;5.80;99.90;;;;;;5038222;28;20049;-72
2022/04/30 02:30:27;;;;;;;38.38;17.30;;;5.80;99.90;;;;;;5033656;28;20045;-73
2022/04/30 02:32:55;;;;;;;28.77;17.30;;;5.70;99.90;;;;;;5038418;28;20041;-73
2022/04/30 02:35:24;;;;;;;30.67;16.88;;;5.70;99.90;;;;;;5033756;28;20719;-73
2022/04/30 02:37:52;;;;;;;27.70;15.50;;;5.70;99.90;;;;;;5033820;28;20045;-73
2022/04/30 02:40:20;;;;;;;;;;;5.70;99.90;;;;;;5038979;28;20044;-73
2022/04/30 02:42:47;;;;;;;27.00;15.65;;;5.70;99.90;;;;;;5035703;28;19953;-73
2022/04/30 02:45:15;;;;;;;38.47;18.48;;;5.60;99.90;;;;;;5024880;28;20418;-73
2022/04/30 02:47:43;;;;;;;25.63;16.90;;;5.60;99.90;;;;;;5031575;28;20410;-73
2022/04/30 02:50:11;;;;;;;28.65;16.40;;;5.70;99.90;;;;;;5041452;28;20044;-73
2022/04/30 02:52:38;;;;;;;26.13;17.77;;;5.60;99.90;;;;;;5039134;28;20137;-72
2022/04/30 02:55:04;;;;;;;22.38;15.25;;;5.60;99.90;;;;;;5038599;28;20037;-73
2022/04/30 02:59:53;;;;;;;26.50;17.30;;;5.60;99.90;;;;;;5035994;28;20247;-73
2022/04/30 03:00:34;;;;;;;25.38;15.43;;;5.70;99.90;;;;;;5036825;28;20061;-73
2022/04/30 03:02:59;;;;;;;21.00;15.85;;;5.60;99.90;;;;;;5035988;28;20038;-73
2022/04/30 03:05:26;;;;;;;28.73;16.58;;;5.60;99.90;;;;;;5040753;28;20715;-73
2022/04/30 03:07:52;;;;;;;26.08;15.95;;;5.70;99.90;;;;;;5037835;28;20064;-73
2022/04/30 03:10:19;;;;;;;18.42;15.02;;;5.70;99.90;;;;;;5038463;28;20106;-73
2022/04/30 03:12:44;;;;;;;25.73;17.42;;;5.70;99.90;;;;;;5040567;28;20107;-73
2022/04/30 03:15:11;;;;;;;25.15;16.50;;;5.70;99.90;;;;;;5036787;28;20600;-73
2022/04/30 03:23:07;;;;;;;23.95;14.75;;;5.70;99.90;;;;;;5035854;28;20115;-72
2022/04/30 03:25:33;;;;;;;32.30;17.05;;;5.70;99.90;;;;;;5033059;28;20446;-73
2022/04/30 03:27:59;;;;;;;22.38;16.33;;;5.70;99.90;;;;;;5031904;28;20041;-73
2022/04/30 03:30:25;;;;;;;23.92;16.58;;;5.70;99.90;;;;;;5038731;28;20042;-73
2022/04/30 03:32:50;;;;;;;21.55;15.93;;;5.70;99.90;;;;;;5038753;28;20049;-73
2022/04/30 03:35:16;;;;;;;28.60;16.83;;;5.70;99.90;;;;;;5035146;28;20545;-73
2022/04/30 03:37:41;;;;;;;25.77;15.52;;;5.70;99.90;;;;;;5032155;28;20091;-73
2022/04/30 03:40:08;;;;;;;23.52;15.73;;;5.70;99.90;;;;;;5034306;28;20045;-73
2022/04/30 03:42:34;;;;;;;28.70;15.98;;;5.80;99.90;;;;;;5036573;28;20433;-73
2022/04/30 03:45:02;;;;;;;25.63;15.20;;;5.70;99.90;;;;;;5031919;28;20056;-73
2022/04/30 03:47:28;;;;;;;27.00;16.13;;;5.70;99.90;;;;;;5031017;28;20045;-73
2022/04/30 03:49:54;;;;;;;25.77;16.10;;;5.70;99.90;;;;;;5035702;28;20526;-72
2022/04/30 03:52:19;;;;;;;19.95;14.93;;;5.70;99.90;;;;;;5039643;28;20124;-73
2022/04/30 03:54:45;;;;;;;27.60;15.23;;;5.70;99.90;;;;;;5036673;28;20049;-73
2022/04/30 03:57:11;;;;;;;23.08;15.55;;;5.70;99.90;;;;;;5024278;28;20480;-72
2022/04/30 03:59:36;;;;;;;20.48;14.23;;;5.70;99.90;;;;;;5029406;28;20157;-73
2022/04/30 04:02:03;;;;;;;26.30;14.65;;;5.60;99.90;;;;;;5031231;28;20055;-73
2022/04/30 04:04:29;;;;;;;25.33;14.15;;;5.60;99.90;;;;;;5050962;28;20073;-71
2022/04/30 04:06:56;;;;;;;21.00;15.05;;;5.60;99.90;;;;;;5043525;28;20060;-71
2022/04/30 04:09:22;;;;;;;21.45;13.88;;;5.60;99.90;;;;;;5027129;28;20029;-72
2022/04/30 04:11:48;;;;;;;23.00;16.27;;;5.60;99.90;;;;;;5027550;28;20406;-72
2022/04/30 04:19:42;;;;;;;24.20;14.10;;;5.60;99.90;;;;;;5032214;28;20061;-72
2022/04/30 04:22:07;;;;;;;20.35;14.40;;;5.60;99.90;;;;;;5023317;28;20038;-72
2022/04/30 04:27:18;;;;;;;18.90;14.13;;;5.80;99.90;;;;;;5016811;28;20058;-72
2022/04/30 04:29:46;;;;;;;18.38;13.20;;;5.90;99.90;;;;;;5022466;28;20052;-72
2022/04/30 04:32:13;;;;;;;23.48;14.45;;;5.90;99.90;;;;;;5028670;28;20048;-72
2022/04/30 04:34:39;;;;;;;27.65;13.10;;;6.00;99.90;;;;;;5024133;28;20092;-72
2022/04/30 04:37:05;;;;;;;21.98;13.98;;;6.00;99.90;;;;;;5008381;28;20042;-71
2022/04/30 04:39:31;;;;;;;27.05;14.25;;;5.90;99.90;;;;;;5018971;28;20034;-70
2022/04/30 04:41:56;;;;;;;22.75;14.20;;;5.90;99.90;;;;;;5025236;28;20422;-71
2022/04/30 04:44:22;;;;;;;19.63;13.10;;;5.90;99.90;;;;;;5030417;28;20041;-71
2022/04/30 04:46:48;;;;;;;18.20;13.82;;;5.90;99.90;;;;;;5045001;28;20041;-71
2022/04/30 04:49:15;;;;;;;21.92;13.88;;;5.90;99.90;;;;;;5038447;28;20044;-71
2022/04/30 04:51:40;;;;;;;17.90;13.82;;;5.90;99.90;;;;;;5026076;28;20576;-71
2022/04/30 04:54:07;;;;;;;16.65;12.77;;;5.80;99.90;;;;;;5026621;28;20041;-70
2022/04/30 04:56:32;;;;;;;18.67;13.80;;;5.80;99.90;;;;;;5026847;28;20041;-71
2022/04/30 04:58:58;;;;;;;18.65;13.80;;;5.80;99.90;;;;;;5027432;28;20091;-71
2022/04/30 05:01:25;;;;;;;20.33;14.68;;;5.80;99.90;;;;;;5031162;28;20456;-72
2022/04/30 05:03:51;;;;;;;17.08;13.68;;;5.80;99.90;;;;;;5026681;28;20559;-72
2022/04/30 05:06:16;;;;;;;21.42;14.80;;;5.80;99.90;;;;;;5025419;28;20049;-72
2022/04/30 05:08:42;;;;;;;23.25;14.27;;;5.80;99.90;;;;;;5024452;28;20411;-72
2022/04/30 05:11:08;;;;;;;27.88;15.63;;;5.80;99.90;;;;;;5039611;28;20505;-72
2022/04/30 05:13:34;;;;;;;20.80;14.77;;;5.80;99.90;;;;;;5030919;28;20461;-71
2022/04/30 05:15:59;;;;;;;31.45;14.88;;;5.90;99.90;;;;;;5028863;28;20141;-71
2022/04/30 05:18:25;;;;;;;26.85;16.23;;;5.90;99.90;;;;;;5041033;28;20079;-71
2022/04/30 05:20:51;;;;;;;30.15;18.80;;;5.90;99.90;;;;;;5027501;28;20099;-71
2022/04/30 05:23:17;;;;;;;27.30;16.27;;;6.00;99.90;;;;;;5028608;28;20307;-71
2022/04/30 05:25:43;;;;;;;26.08;17.08;;;6.00;99.90;;;;;;5040625;28;20055;-71
2022/04/30 05:28:09;;;;;;;27.20;16.40;;;6.00;99.90;;;;;;5034766;28;20049;-72
2022/04/30 05:30:35;;;;;;;26.63;17.00;;;6.10;99.90;;;;;;5035441;28;20049;-71
2022/04/30 05:33:08;;;;;;;26.58;16.00;;;6.10;99.90;;;;;;5027074;28;20107;-71
2022/04/30 05:35:33;;;;;;;26.80;16.08;;;6.20;99.90;;;;;;5026912;28;20572;-71
2022/04/30 05:37:59;;;;;;;22.48;16.67;;;6.20;99.90;;;;;;5039988;28;20045;-72
2022/04/30 05:40:25;;;;;;;29.17;16.80;;;6.30;99.90;;;;;;5026297;28;20041;-72
2022/04/30 05:42:50;;;;;;;34.97;19.00;;;6.30;99.90;;;;;;5030028;28;20045;-71
2022/04/30 05:45:16;;;;;;;23.13;17.85;;;6.40;99.90;;;;;;5011764;28;20129;-71
2022/04/30 05:47:42;;;;;;;23.38;17.13;;;6.50;99.90;;;;;;5040698;28;20042;-72
2022/04/30 05:50:09;;;;;;;23.80;15.48;;;6.50;99.90;;;;;;5027581;28;20060;-72
2022/04/30 05:52:35;;;;;;;23.88;16.48;;;6.50;99.90;;;;;;5036533;28;20061;-72
2022/04/30 05:55:02;;;;;;;27.13;17.23;;;6.60;99.90;;;;;;5031646;28;20374;-72
2022/04/30 05:57:29;;;;;;;23.60;15.00;;;6.70;99.90;;;;;;5023147;28;20129;-72
2022/04/30 05:59:58;;;;;;;26.50;18.83;;;6.70;99.90;;;;;;5026408;28;20704;-72
2022/04/30 06:02:25;;;;;;;22.23;15.70;;;6.80;99.90;;;;;;5028162;28;20442;-73
2022/04/30 06:04:50;;;;;;;32.28;17.40;;;6.90;99.90;;;;;;5027479;28;20057;-72
2022/04/30 06:07:19;;;;;;;25.20;17.17;;;7.00;99.90;;;;;;5035833;28;20045;-73
2022/04/30 06:09:45;;;;;;;;;;;7.00;99.90;;;;;;5040854;28;20205;-73
2022/04/30 06:12:11;;;;;;;27.75;18.20;;;7.10;99.90;;;;;;5030621;28;19921;-73
2022/04/30 06:14:36;;;;;;;29.15;17.88;;;7.30;99.90;;;;;;5036448;28;20102;-72
2022/04/30 06:17:02;;;;;;;25.00;16.27;;;7.40;99.90;;;;;;5030551;28;20045;-72
2022/04/30 06:19:28;;;;;;;26.30;15.15;;;7.60;99.90;;;;;;5044134;28;20048;-72
2022/04/30 06:21:54;;;;;;;27.45;16.30;;;7.70;99.90;;;;;;5039391;28;20048;-72
2022/04/30 06:24:20;;;;;;;26.67;18.10;;;7.80;99.90;;;;;;5045449;28;20044;-73
2022/04/30 06:26:45;;;;;;;21.42;16.00;;;7.90;99.90;;;;;;5030486;28;20507;-70
2022/04/30 06:29:11;;;;;;;21.83;15.20;;;8.10;99.90;;;;;;5040480;28;20048;-71
2022/04/30 06:31:37;;;;;;;21.98;13.40;;;8.20;99.90;;;;;;5023200;28;20054;-71
2022/04/30 06:34:04;;;;;;;25.00;13.38;;;8.40;99.90;;;;;;5034395;28;20052;-72
2022/04/30 06:36:30;;;;;;;25.67;14.75;;;8.60;99.90;;;;;;5030694;28;20051;-71
2022/04/30 06:38:55;;;;;;;22.58;14.38;;;8.80;99.90;;;;;;5043135;28;20069;-71
2022/04/30 06:41:22;;;;;;;16.00;10.80;;;8.90;99.90;;;;;;5036911;28;20819;-71
2022/04/30 06:43:51;;;;;;;16.10;12.10;;;9.10;99.90;;;;;;5029552;28;20049;-70
2022/04/30 06:46:17;;;;;;;21.10;10.90;;;9.40;99.90;;;;;;5033746;28;20056;-70
2022/04/30 06:48:44;;;;;;;13.60;10.68;;;9.50;99.90;;;;;;5035136;28;20049;-70
2022/04/30 06:51:11;;;;;;;18.73;12.68;;;9.70;99.90;;;;;;5038160;28;20182;-70
2022/04/30 06:59:10;;;;;;;13.65;11.57;;;10.00;99.90;;;;;;5029124;28;20061;-71
2022/04/30 07:01:59;;;;;;;34.83;13.50;;;10.20;99.90;;;;;;5043030;28;20619;-70
2022/04/30 07:04:26;;;;;;;29.17;12.02;;;10.20;99.90;;;;;;5029302;28;20580;-70
2022/04/30 07:06:52;;;;;;;15.27;11.13;;;10.40;99.90;;;;;;5047641;28;20719;-70
2022/04/30 07:09:18;;;;;;;17.67;10.38;;;10.50;99.90;;;;;;5035664;28;20059;-70
2022/04/30 07:11:44;;;;;;;19.10;11.65;;;10.50;99.90;;;;;;5036738;28;20034;-70
2022/04/30 07:14:10;;;;;;;14.23;11.35;;;10.60;99.90;;;;;;5026106;28;20053;-70
2022/04/30 07:16:36;;;;;;;18.98;11.10;;;10.60;99.90;;;;;;5032470;28;20410;-70
2022/04/30 07:19:05;;;;;;;19.50;11.43;;;10.70;99.90;;;;;;5036652;28;20504;-70
2022/04/30 07:21:31;;;;;;;26.40;11.73;;;10.80;99.90;;;;;;5036354;28;20414;-70
2022/04/30 07:24:01;;;;;;;17.58;10.90;;;10.80;99.90;;;;;;5042081;28;20558;-71
2022/04/30 07:26:27;;;;;;;30.33;11.27;;;10.90;99.90;;;;;;5031166;28;20045;-70
2022/04/30 07:28:53;;;;;;;11.88;9.60;;;11.00;99.90;;;;;;5039511;28;20044;-70
2022/04/30 07:31:19;;;;;;;14.57;10.40;;;11.00;99.90;;;;;;5037101;28;20398;-71
2022/04/30 07:33:45;;;;;;;14.30;9.55;;;11.00;99.90;;;;;;5038811;28;20284;-70
2022/04/30 07:36:10;;;;;;;16.20;10.63;;;11.00;99.90;;;;;;5033575;28;20041;-70
2022/04/30 07:38:36;;;;;;;22.88;11.90;;;11.10;99.90;;;;;;5037184;28;20127;-71
2022/04/30 07:41:02;;;;;;;16.23;11.23;;;11.20;99.90;;;;;;5038473;28;20133;-70
2022/04/30 07:43:28;;;;;;;19.60;11.13;;;11.10;99.90;;;;;;5032509;28;20132;-70
2022/04/30 07:45:54;;;;;;;12.95;9.73;;;11.10;99.90;;;;;;5034570;28;20060;-70
2022/04/30 07:48:20;;;;;;;13.82;9.60;;;11.20;99.90;;;;;;5031133;28;20049;-70
2022/04/30 07:50:46;;;;;;;13.23;9.35;;;11.30;99.90;;;;;;5037717;28;20060;-70
2022/04/30 07:53:14;;;;;;;16.42;11.13;;;11.30;99.90;;;;;;5036531;28;20050;-70
2022/04/30 07:55:41;;;;;;;14.88;9.90;;;11.30;99.90;;;;;;5039819;28;20048;-70
2022/04/30 07:58:07;;;;;;;13.55;10.68;;;11.10;99.90;;;;;;5031033;28;20120;-70
2022/04/30 08:00:33;;;;;;;15.57;9.85;;;11.10;99.90;;;;;;5031083;28;20115;-71
2022/04/30 08:02:59;;;;;;;14.13;9.85;;;11.00;99.90;;;;;;5034707;28;20036;-70
2022/04/30 08:05:26;;;;;;;14.68;9.10;;;11.00;99.90;;;;;;5040418;28;20514;-70
2022/04/30 08:07:52;;;;;;;18.95;12.15;;;11.00;99.90;;;;;;5031588;28;20042;-70
2022/04/30 08:10:18;;;;;;;18.77;11.20;;;11.10;99.90;;;;;;5027421;28;20071;-70
2022/04/30 08:12:44;;;;;;;15.93;10.30;;;11.10;99.90;;;;;;5022615;28;20080;-69
2022/04/30 08:15:10;;;;;;;13.18;10.15;;;11.10;99.90;;;;;;5040388;28;20045;-69
2022/04/30 08:17:38;;;;;;;16.55;11.20;;;11.20;99.90;;;;;;5032291;28;20056;-69
2022/04/30 08:20:07;;;;;;;;;;;11.20;99.90;;;;;;5035958;28;20061;-69
2022/04/30 08:22:33;;;;;;;14.05;11.45;;;11.30;99.90;;;;;;5030053;28;19963;-70
2022/04/30 08:25:03;;;;;;;16.55;11.00;;;11.40;99.90;;;;;;5040417;28;20051;-71
2022/04/30 08:27:29;;;;;;;22.75;12.35;;;11.50;99.90;;;;;;5035442;28;20433;-71
2022/04/30 08:29:55;;;;;;;17.50;11.63;;;11.60;99.90;;;;;;5039786;28;20637;-72
2022/04/30 08:32:24;;;;;;;18.08;12.35;;;11.70;99.90;;;;;;5036043;28;20045;-71
2022/04/30 08:34:50;;;;;;;17.67;11.27;;;11.80;99.90;;;;;;5036341;28;20042;-71
2022/04/30 08:37:16;;;;;;;37.42;12.23;;;11.70;99.90;;;;;;5042635;28;20429;-69
2022/04/30 08:39:43;;;;;;;20.17;11.70;;;11.60;99.90;;;;;;5028941;28;20120;-69
2022/04/30 08:42:09;;;;;;;18.55;11.30;;;11.70;99.90;;;;;;5030122;28;21523;-69
2022/04/30 08:44:37;;;;;;;18.45;10.35;;;11.70;99.90;;;;;;5028235;28;20049;-69
2022/04/30 08:47:05;;;;;;;14.05;9.00;;;11.90;99.90;;;;;;5042085;28;20390;-70
2022/04/30 08:49:31;;;;;;;13.00;10.63;;;12.00;99.90;;;;;;5038910;28;20049;-69
2022/04/30 08:51:57;;;;;;;17.35;11.20;;;12.20;99.90;;;;;;5032954;28;20539;-69
2022/04/30 08:54:24;;;;;;;19.73;12.65;;;12.30;99.90;;;;;;5038084;28;20049;-69
2022/04/30 08:56:57;;;;;;;24.23;10.63;;;12.40;99.90;;;;;;5130390;27;20379;-72
2022/04/30 08:59:24;;;;;;;16.33;9.38;;;12.60;99.90;;;;;;5114290;27;20054;-71
2022/04/30 09:01:52;;;;;;;12.25;10.20;;;12.70;99.90;;;;;;5124117;28;20036;-71
2022/04/30 09:04:19;;;;;;;20.83;12.13;;;12.70;99.90;;;;;;5117686;28;20101;-72
2022/04/30 09:06:46;;;;;;;18.17;11.57;;;12.60;99.90;;;;;;5114796;28;20051;-73
2022/04/30 09:09:29;;;;;;;13.50;10.03;;;12.60;99.90;;;;;;5104800;28;20047;-73
2022/04/30 09:12:16;;;;;;;18.90;10.32;;;12.70;99.90;;;;;;5108828;28;20397;-75
2022/04/30 09:14:42;;;;;;;15.50;10.80;;;12.70;99.90;;;;;;5092306;28;20092;-75
2022/04/30 09:17:11;;;;;;;18.58;10.43;;;12.60;99.90;;;;;;5117859;28;20089;-75
2022/04/30 09:19:54;;;;;;;13.18;10.77;;;12.60;99.90;;;;;;5091235;28;20095;-76
2022/04/30 09:22:33;;;;;;;22.30;11.10;;;12.60;99.90;;;;;;5106356;28;20055;-76
2022/04/30 09:25:02;;;;;;;11.93;10.05;;;12.70;99.90;;;;;;5110757;28;20493;-76
2022/04/30 09:27:28;;;;;;;17.60;10.65;;;12.90;99.90;;;;;;5103059;28;20044;-75
2022/04/30 09:29:54;;;;;;;13.10;10.90;;;12.90;99.90;;;;;;5080157;28;20117;-76
2022/04/30 09:32:23;;;;;;;13.02;9.93;;;12.90;99.90;;;;;;5106068;28;20382;-77
2022/04/30 09:37:41;;;;;;;11.88;10.45;;;12.90;99.90;;;;;;5107324;28;20046;-76
2022/04/30 09:40:27;;;;;;;12.68;9.95;;;12.90;99.90;;;;;;5107827;28;20048;-77
2022/04/30 09:42:53;;;;;;;15.07;10.25;;;12.90;99.90;;;;;;5104751;28;20040;-77
2022/04/30 09:45:33;;;;;;;16.75;10.52;;;13.00;99.90;;;;;;5110917;28;20046;-77
2022/04/30 09:48:01;;;;;;;14.52;10.77;;;13.00;99.90;;;;;;5099118;28;20052;-76
2022/04/30 09:56:13;;;;;;;11.73;9.73;;;13.20;99.90;;;;;;5107331;28;20050;-76
2022/04/30 09:58:41;;;;;;;16.88;10.00;;;13.20;99.90;;;;;;5106794;28;20396;-76
2022/04/30 10:01:11;;;;;;;15.38;9.73;;;13.10;99.90;;;;;;5092909;28;20028;-77
2022/04/30 10:03:39;;;;;;;13.88;9.73;;;13.10;99.90;;;;;;5102170;28;20031;-76
2022/04/30 10:06:06;;;;;;;12.52;10.63;;;13.10;99.90;;;;;;5076669;28;20035;-76
2022/04/30 10:08:37;;;;;;;17.58;10.55;;;13.10;99.90;;;;;;5087245;28;20581;-78
2022/04/30 10:11:26;;;;;;;25.13;10.77;;;13.10;99.90;;;;;;5104722;28;20488;-77
2022/04/30 10:14:08;;;;;;;15.45;11.15;;;13.10;99.90;;;;;;5091238;28;20036;-77
2022/04/30 10:16:35;;;;;;;18.60;11.45;;;13.00;99.90;;;;;;5075514;28;20044;-77
2022/04/30 10:19:16;;;;;;;14.80;10.17;;;13.00;99.90;;;;;;5092836;28;20036;-77
2022/04/30 10:21:42;;;;;;;14.38;10.73;;;13.00;99.90;;;;;;5093173;28;20312;-78
2022/04/30 10:24:12;;;;;;;17.65;11.73;;;13.00;99.90;;;;;;5080622;28;20393;-78
2022/04/30 10:26:57;;;;;;;16.13;11.15;;;13.00;99.90;;;;;;5089357;28;20060;-77
2022/04/30 10:29:23;;;;;;;20.55;12.38;;;12.90;99.90;;;;;;5084505;28;20040;-77
2022/04/30 10:31:49;;;;;;;15.07;11.48;;;12.90;99.90;;;;;;5086333;28;20102;-80
2022/04/30 10:34:15;;;;;;;15.45;11.90;;;12.90;99.90;;;;;;5099961;28;20044;-76
2022/04/30 10:36:41;;;;;;;25.35;10.68;;;12.80;99.90;;;;;;5076413;28;20047;-76
2022/04/30 10:39:17;;;;;;;23.77;12.35;;;12.90;99.90;;;;;;5097468;28;20552;-76
2022/04/30 10:41:45;;;;;;;14.00;10.88;;;13.00;99.90;;;;;;5085318;28;20039;-77
2022/04/30 10:44:13;;;;;;;20.73;11.43;;;12.90;99.90;;;;;;5110442;28;20122;-76
2022/04/30 10:46:44;;;;;;;14.05;10.88;;;13.00;99.90;;;;;;5100223;28;20074;-76
2022/04/30 10:49:10;;;;;;;16.23;11.65;;;13.00;99.90;;;;;;5076472;28;20043;-76
2022/04/30 10:51:40;;;;;;;14.32;11.10;;;13.10;99.90;;;;;;5096239;28;20480;-77
2022/04/30 10:54:13;;;;;;;14.00;10.93;;;13.10;99.90;;;;;;5105968;28;20043;-77
2022/04/30 10:56:39;;;;;;;22.52;11.85;;;13.10;99.90;;;;;;5113355;28;20094;-77
2022/04/30 10:59:07;;;;;;;14.73;11.07;;;13.20;99.90;;;;;;5100327;28;20097;-77
2022/04/30 11:01:33;;;;;;;15.43;11.38;;;13.30;99.90;;;;;;5091257;28;20070;-77
2022/04/30 11:04:01;;;;;;;14.10;11.20;;;13.40;99.90;;;;;;5069145;28;20040;-77
2022/04/30 11:06:30;;;;;;;15.95;11.90;;;13.40;99.90;;;;;;5069717;28;20412;-76
2022/04/30 11:09:06;;;;;;;15.98;11.75;;;13.40;99.90;;;;;;5108298;28;20140;-77
2022/04/30 11:11:34;;;;;;;13.48;11.52;;;13.40;99.90;;;;;;5096542;28;20072;-77
2022/04/30 11:14:04;;;;;;;18.48;11.02;;;13.30;99.90;;;;;;5091701;28;20559;-77
2022/04/30 11:16:35;;;;;;;13.30;10.80;;;13.40;99.90;;;;;;5084031;28;20560;-76
2022/04/30 11:19:10;;;;;;;17.88;9.73;;;13.40;99.90;;;;;;5090897;28;20097;-76
2022/04/30 11:21:41;;;;;;;14.30;7.65;;;13.40;99.90;;;;;;5092245;28;20045;-76
2022/04/30 11:24:08;;;;;;;9.82;8.70;;;13.30;99.90;;;;;;5091720;28;20119;-77
2022/04/30 11:26:38;;;;;;;13.50;9.43;;;13.40;99.90;;;;;;5091864;28;20043;-75
2022/04/30 11:29:12;;;;;;;11.35;6.90;;;13.50;99.90;;;;;;5088091;28;20076;-75
2022/04/30 11:31:39;;;;;;;12.85;8.98;;;13.40;90.40;;;;;;5093537;28;20039;-75
2022/04/30 11:34:13;;;;;;;8.10;6.65;;;13.20;99.90;;;;;;5087641;28;20047;-75
2022/04/30 11:36:53;;;;;;;16.92;10.15;;;13.30;97.10;;;;;;5074713;28;20523;-75
2022/04/30 11:39:20;;;;;;;12.00;9.98;;;13.20;99.30;;;;;;5075895;28;20525;-75
2022/04/30 11:41:50;;;;;;;12.55;8.27;;;13.00;99.90;;;;;;5089149;28;20127;-74
2022/04/30 11:44:20;;;;;;;11.45;7.95;;;13.00;99.90;;;;;;5104483;28;20043;-74
2022/04/30 11:46:48;;;;;;;11.65;7.63;;;13.10;99.90;;;;;;5071698;28;20051;-74
2022/04/30 11:49:19;;;;;;;9.65;6.95;;;13.30;99.90;;;;;;5104275;28;20039;-75
2022/04/30 11:51:46;;;;;;;13.27;9.80;;;13.40;99.00;;;;;;5112517;28;20131;-76
2022/04/30 11:54:21;;;;;;;13.02;10.07;;;13.30;97.70;;;;;;5092986;28;20071;-74
2022/04/30 11:56:48;;;;;;;15.52;11.45;;;13.40;99.90;;;;;;5082867;28;20096;-74
2022/04/30 11:59:13;;;;;;;15.70;10.30;;;13.30;98.60;;;;;;5080133;28;20036;-74
2022/04/30 12:01:41;;;;;;;17.52;11.07;;;13.40;99.90;;;;;;5091738;28;20048;-73
2022/04/30 12:04:14;;;;;;;15.82;10.77;;;13.60;99.90;;;;;;5108707;28;20043;-74
2022/04/30 12:06:44;;;;;;;16.38;10.48;;;13.60;99.90;;;;;;5108570;28;20389;-73
2022/04/30 12:09:20;;;;;;;16.25;11.23;;;13.50;99.90;;;;;;5086816;28;20046;-74
2022/04/30 12:11:51;;;;;;;20.50;11.93;;;13.60;99.90;;;;;;5108263;28;20048;-74
2022/04/30 12:14:20;;;;;;;20.70;11.05;;;13.60;99.90;;;;;;5099084;28;20048;-73
2022/04/30 12:16:48;;;;;;;18.23;11.20;;;13.80;99.90;;;;;;5084451;28;20054;-74
2022/04/30 12:25:09;;;;;;;16.77;10.00;;;13.90;99.90;;;;;;5104016;28;20122;-74
2022/04/30 12:27:36;;;;;;;15.32;10.02;;;14.10;99.90;;;;;;5094864;28;20125;-74
2022/04/30 12:30:15;;;;;;;21.20;10.10;;;14.10;99.90;;;;;;5083177;28;20047;-74
2022/04/30 12:33:05;;;;;;;13.48;8.95;;;14.20;98.00;;;;;;5092841;28;20039;-74
2022/04/30 12:35:40;;;;;;;15.85;10.00;;;14.40;99.50;;;;;;5087923;28;20133;-74
2022/04/30 12:38:12;;;;;;;10.35;8.00;;;14.40;97.20;;;;;;5083174;28;20040;-74
2022/04/30 12:40:43;;;;;;;16.65;8.45;;;14.50;99.00;;;;;;5073935;28;20104;-74
2022/04/30 12:43:10;;;;;;;19.88;12.05;;;14.50;97.50;;;;;;5087525;28;20032;-74
2022/04/30 12:45:37;;;;;;;14.85;10.10;;;14.50;96.00;;;;;;5084649;28;20040;-73
2022/04/30 12:48:04;;;;;;;14.95;9.10;;;14.50;97.30;;;;;;5098867;28;20046;-72
2022/04/30 12:50:32;;;;;;;14.07;10.73;;;14.50;99.80;;;;;;5088283;28;20081;-74
2022/04/30 12:53:00;;;;;;;12.77;8.68;;;14.50;95.50;;;;;;5082994;28;20535;-74
2022/04/30 12:55:29;;;;;;;10.50;7.90;;;14.60;92.80;;;;;;5096548;28;20139;-74
2022/04/30 12:57:55;;;;;;;19.65;9.30;;;14.60;94.00;;;;;;5088254;28;20048;-74
2022/04/30 13:00:21;;;;;;;10.63;9.07;;;14.60;92.00;;;;;;5077477;28;20513;-73
2022/04/30 13:02:47;;;;;;;13.60;9.68;;;14.70;91.90;;;;;;5055990;28;20079;-74
2022/04/30 13:05:14;;;;;;;13.10;8.95;;;14.70;90.30;;;;;;5071110;28;20051;-75
2022/04/30 13:07:42;;;;;;;15.32;9.20;;;14.80;87.40;;;;;;5083289;28;20047;-74
2022/04/30 13:15:38;;;;;;;19.55;10.38;;;14.80;90.90;;;;;;5105780;28;20098;-79
2022/04/30 13:18:06;;;;;;;16.50;10.45;;;14.80;90.90;;;;;;5104679;28;20044;-75
2022/04/30 13:20:38;;;;;;;13.35;9.43;;;14.90;90.40;;;;;;5091788;28;20043;-76
2022/04/30 13:23:07;;;;;;;14.43;9.35;;;14.80;86.00;;;;;;5103375;28;20035;-75
2022/04/30 13:25:33;;;;;;;12.18;8.85;;;14.90;90.70;;;;;;5103430;28;20378;-75